Terminal Aerodrome Forecast
Issued by NWS

Home | Current Version | Previous Version | Text Only | Print | Product List | Glossary On
Versions: 1 2 3 4 5 6 7 8 9 10 11 12 13 14 15 16 17 18 19 20 21 22 23 24 25 26 27 28 29 30 31 32 33 34 35 36 37 38 39 40 41 42
000
FTAK31 PAFA 020603 AAC
TAFATA
TAF AMD
PATA 020603Z 0206/0306 29003KT 4SM FU BKN035 OVC045
     FM021200 VRB04KT 1SM BR FU OVC007
     FM021900 VRB04KT 3SM FU SCT007 OVC015
     FM030000 VRB04KT 5SM FU SCT020 OVC050=

USA.gov is the U.S. government's official web portal to all federal, state and local government web resources and services.